sensor_id;sensor_type;location;lat;lon;timestamp;temperature;humidity
36654;DHT22;22650;49.350;20.898;2024-02-16T00:00:31;-0.60;99.90
36654;DHT22;22650;49.350;20.898;2024-02-16T00:03:05;-0.60;99.90
36654;DHT22;22650;49.350;20.898;2024-02-16T00:05:38;-0.70;99.90
36654;DHT22;22650;49.350;20.898;2024-02-16T00:08:12;-0.70;99.90
36654;DHT22;22650;49.350;20.898;2024-02-16T00:10:46;-0.70;99.90
36654;DHT22;22650;49.350;20.898;2024-02-16T00:13:20;-0.70;99.90
36654;DHT22;22650;49.350;20.898;2024-02-16T00:15:55;-0.70;99.90
36654;DHT22;22650;49.350;20.898;2024-02-16T00:18:29;-0.70;99.90
36654;DHT22;22650;49.350;20.898;2024-02-16T00:21:03;-0.70;99.90
36654;DHT22;22650;49.350;20.898;2024-02-16T00:23:37;-0.70;99.90
36654;DHT22;22650;49.350;20.898;2024-02-16T00:26:11;-0.80;99.90
36654;DHT22;22650;49.350;20.898;2024-02-16T00:28:44;-0.80;99.90
36654;DHT22;22650;49.350;20.898;2024-02-16T00:31:20;-0.80;99.90
36654;DHT22;22650;49.350;20.898;2024-02-16T00:33:53;-0.80;99.90
36654;DHT22;22650;49.350;20.898;2024-02-16T00:36:27;-0.80;99.90
36654;DHT22;22650;49.350;20.898;2024-02-16T00:39:04;-0.80;99.90
36654;DHT22;22650;49.350;20.898;2024-02-16T00:41:37;-0.80;99.90
36654;DHT22;22650;49.350;20.898;2024-02-16T00:44:11;-0.80;99.90
36654;DHT22;22650;49.350;20.898;2024-02-16T00:46:46;-0.90;99.90
36654;DHT22;22650;49.350;20.898;2024-02-16T00:49:20;-0.90;99.90
36654;DHT22;22650;49.350;20.898;2024-02-16T00:51:54;-0.90;99.90
36654;DHT22;22650;49.350;20.898;2024-02-16T00:54:30;-1.00;99.90
36654;DHT22;22650;49.350;20.898;2024-02-16T00:57:04;-0.90;99.90
36654;DHT22;22650;49.350;20.898;2024-02-16T00:59:38;-0.90;99.90
36654;DHT22;22650;49.350;20.898;2024-02-16T01:02:13;-0.90;99.90
36654;DHT22;22650;49.350;20.898;2024-02-16T01:04:49;-0.90;99.90
36654;DHT22;22650;49.350;20.898;2024-02-16T01:07:24;-0.90;99.90
36654;DHT22;22650;49.350;20.898;2024-02-16T01:09:57;-0.90;99.90
36654;DHT22;22650;49.350;20.898;2024-02-16T01:12:32;-0.90;99.90
36654;DHT22;22650;49.350;20.898;2024-02-16T01:15:06;-0.80;99.90
36654;DHT22;22650;49.350;20.898;2024-02-16T01:17:42;-0.80;99.90
36654;DHT22;22650;49.350;20.898;2024-02-16T01:20:16;-0.80;99.90
36654;DHT22;22650;49.350;20.898;2024-02-16T01:22:49;-0.70;99.90
36654;DHT22;22650;49.350;20.898;2024-02-16T01:25:23;-0.80;99.90
36654;DHT22;22650;49.350;20.898;2024-02-16T01:27:56;-0.80;99.90
36654;DHT22;22650;49.350;20.898;2024-02-16T01:30:30;-0.80;99.90
36654;DHT22;22650;49.350;20.898;2024-02-16T01:33:05;-0.70;99.90
36654;DHT22;22650;49.350;20.898;2024-02-16T01:35:39;-0.70;99.90
36654;DHT22;22650;49.350;20.898;2024-02-16T01:38:13;-0.70;99.90
36654;DHT22;22650;49.350;20.898;2024-02-16T01:40:46;-0.70;99.90
36654;DHT22;22650;49.350;20.898;2024-02-16T01:43:20;-0.60;99.90
36654;DHT22;22650;49.350;20.898;2024-02-16T01:45:53;-0.60;99.90
36654;DHT22;22650;49.350;20.898;2024-02-16T01:48:30;-0.60;99.90
36654;DHT22;22650;49.350;20.898;2024-02-16T01:51:05;-0.60;99.90
36654;DHT22;22650;49.350;20.898;2024-02-16T01:53:39;-0.50;99.90
36654;DHT22;22650;49.350;20.898;2024-02-16T01:56:13;-0.50;99.90
36654;DHT22;22650;49.350;20.898;2024-02-16T01:58:47;-0.50;99.90
36654;DHT22;22650;49.350;20.898;2024-02-16T02:01:23;-0.50;99.90
36654;DHT22;22650;49.350;20.898;2024-02-16T02:03:58;-0.50;99.90
36654;DHT22;22650;49.350;20.898;2024-02-16T02:06:32;-0.40;99.90
36654;DHT22;22650;49.350;20.898;2024-02-16T02:09:06;-0.40;99.90
36654;DHT22;22650;49.350;20.898;2024-02-16T02:11:39;-0.40;99.90
36654;DHT22;22650;49.350;20.898;2024-02-16T02:14:13;-0.40;99.90
36654;DHT22;22650;49.350;20.898;2024-02-16T02:16:46;-0.40;99.90
36654;DHT22;22650;49.350;20.898;2024-02-16T02:19:31;-0.40;99.90
36654;DHT22;22650;49.350;20.898;2024-02-16T02:22:13;-0.40;99.90
36654;DHT22;22650;49.350;20.898;2024-02-16T02:24:47;-0.40;99.90
36654;DHT22;22650;49.350;20.898;2024-02-16T02:27:22;-0.50;99.90
36654;DHT22;22650;49.350;20.898;2024-02-16T02:29:55;-0.50;99.90
36654;DHT22;22650;49.350;20.898;2024-02-16T02:32:31;-0.50;99.90
36654;DHT22;22650;49.350;20.898;2024-02-16T02:35:05;-0.50;99.90
36654;DHT22;22650;49.350;20.898;2024-02-16T02:37:42;-0.50;99.90
36654;DHT22;22650;49.350;20.898;2024-02-16T02:40:16;-0.50;99.90
36654;DHT22;22650;49.350;20.898;2024-02-16T02:42:49;-0.60;99.90
36654;DHT22;22650;49.350;20.898;2024-02-16T02:45:23;-0.60;99.90
36654;DHT22;22650;49.350;20.898;2024-02-16T02:47:57;-0.60;99.90
36654;DHT22;22650;49.350;20.898;2024-02-16T02:50:30;-0.60;99.90
36654;DHT22;22650;49.350;20.898;2024-02-16T02:53:05;-0.70;99.90
36654;DHT22;22650;49.350;20.898;2024-02-16T02:55:39;-0.70;99.90
36654;DHT22;22650;49.350;20.898;2024-02-16T02:58:12;-0.70;99.90
36654;DHT22;22650;49.350;20.898;2024-02-16T03:00:46;-0.70;99.90
36654;DHT22;22650;49.350;20.898;2024-02-16T03:03:20;-0.70;99.90
36654;DHT22;22650;49.350;20.898;2024-02-16T03:05:53;-0.80;99.90
36654;DHT22;22650;49.350;20.898;2024-02-16T03:08:28;-0.80;99.90
36654;DHT22;22650;49.350;20.898;2024-02-16T03:11:02;-0.80;99.90
36654;DHT22;22650;49.350;20.898;2024-02-16T03:13:36;-0.90;99.90
36654;DHT22;22650;49.350;20.898;2024-02-16T03:16:10;-0.90;99.90
36654;DHT22;22650;49.350;20.898;2024-02-16T03:18:43;-0.90;99.90
36654;DHT22;22650;49.350;20.898;2024-02-16T03:21:18;-0.90;99.90
36654;DHT22;22650;49.350;20.898;2024-02-16T03:23:54;-1.00;99.90
36654;DHT22;22650;49.350;20.898;2024-02-16T03:26:27;-1.00;99.90
36654;DHT22;22650;49.350;20.898;2024-02-16T03:29:01;-1.00;99.90
36654;DHT22;22650;49.350;20.898;2024-02-16T03:31:35;-1.00;99.90
36654;DHT22;22650;49.350;20.898;2024-02-16T03:34:09;-1.00;99.90
36654;DHT22;22650;49.350;20.898;2024-02-16T03:36:42;-1.00;99.90
36654;DHT22;22650;49.350;20.898;2024-02-16T03:39:17;-1.10;99.90
36654;DHT22;22650;49.350;20.898;2024-02-16T03:41:52;-1.00;99.90
36654;DHT22;22650;49.350;20.898;2024-02-16T03:44:26;-1.10;99.90
36654;DHT22;22650;49.350;20.898;2024-02-16T03:47:01;-1.10;99.90
36654;DHT22;22650;49.350;20.898;2024-02-16T03:49:35;-1.10;99.90
36654;DHT22;22650;49.350;20.898;2024-02-16T03:52:09;-1.10;99.90
36654;DHT22;22650;49.350;20.898;2024-02-16T03:54:44;-1.10;99.90
36654;DHT22;22650;49.350;20.898;2024-02-16T03:57:20;-1.20;99.90
36654;DHT22;22650;49.350;20.898;2024-02-16T03:59:54;-1.20;99.90
36654;DHT22;22650;49.350;20.898;2024-02-16T04:02:28;-1.20;99.90
36654;DHT22;22650;49.350;20.898;2024-02-16T04:05:01;-1.20;99.90
36654;DHT22;22650;49.350;20.898;2024-02-16T04:07:35;-1.20;99.90
36654;DHT22;22650;49.350;20.898;2024-02-16T04:10:11;-1.20;99.90
36654;DHT22;22650;49.350;20.898;2024-02-16T04:12:45;-1.30;99.90
36654;DHT22;22650;49.350;20.898;2024-02-16T04:15:19;-1.30;99.90
36654;DHT22;22650;49.350;20.898;2024-02-16T04:17:53;-1.30;99.90
36654;DHT22;22650;49.350;20.898;2024-02-16T04:20:26;-1.30;99.90
36654;DHT22;22650;49.350;20.898;2024-02-16T04:23:00;-1.30;99.90
36654;DHT22;22650;49.350;20.898;2024-02-16T04:25:35;-1.40;99.90
36654;DHT22;22650;49.350;20.898;2024-02-16T04:28:09;-1.40;99.90
36654;DHT22;22650;49.350;20.898;2024-02-16T04:30:43;-1.40;99.90
36654;DHT22;22650;49.350;20.898;2024-02-16T04:33:17;-1.40;99.90
36654;DHT22;22650;49.350;20.898;2024-02-16T04:35:50;-1.40;99.90
36654;DHT22;22650;49.350;20.898;2024-02-16T04:38:24;-1.40;99.90
36654;DHT22;22650;49.350;20.898;2024-02-16T04:40:59;-1.50;99.90
36654;DHT22;22650;49.350;20.898;2024-02-16T04:43:32;-1.50;99.90
36654;DHT22;22650;49.350;20.898;2024-02-16T04:46:06;-1.50;99.90
36654;DHT22;22650;49.350;20.898;2024-02-16T04:48:40;-1.50;99.90
36654;DHT22;22650;49.350;20.898;2024-02-16T04:51:13;-1.60;99.90
36654;DHT22;22650;49.350;20.898;2024-02-16T04:53:47;-1.60;99.90
36654;DHT22;22650;49.350;20.898;2024-02-16T04:56:22;-1.60;99.90
36654;DHT22;22650;49.350;20.898;2024-02-16T04:58:56;-1.60;99.90
36654;DHT22;22650;49.350;20.898;2024-02-16T05:01:30;-1.60;99.90
36654;DHT22;22650;49.350;20.898;2024-02-16T05:04:04;-1.60;99.90
36654;DHT22;22650;49.350;20.898;2024-02-16T05:06:39;-1.60;99.90
36654;DHT22;22650;49.350;20.898;2024-02-16T05:09:13;-1.60;99.90
36654;DHT22;22650;49.350;20.898;2024-02-16T05:11:50;-1.70;99.90
36654;DHT22;22650;49.350;20.898;2024-02-16T05:14:24;-1.70;99.90
36654;DHT22;22650;49.350;20.898;2024-02-16T05:16:58;-1.60;99.90
36654;DHT22;22650;49.350;20.898;2024-02-16T05:19:32;-1.70;99.90
36654;DHT22;22650;49.350;20.898;2024-02-16T05:22:09;-1.70;99.90
36654;DHT22;22650;49.350;20.898;2024-02-16T05:24:42;-1.70;99.90
36654;DHT22;22650;49.350;20.898;2024-02-16T05:27:18;-1.70;99.90
36654;DHT22;22650;49.350;20.898;2024-02-16T05:29:52;-1.60;99.90
36654;DHT22;22650;49.350;20.898;2024-02-16T05:32:25;-1.60;99.90
36654;DHT22;22650;49.350;20.898;2024-02-16T05:34:59;-1.60;99.90
36654;DHT22;22650;49.350;20.898;2024-02-16T05:37:37;-1.60;99.90
36654;DHT22;22650;49.350;20.898;2024-02-16T05:40:11;-1.60;99.90
36654;DHT22;22650;49.350;20.898;2024-02-16T05:42:56;-1.60;99.90
36654;DHT22;22650;49.350;20.898;2024-02-16T05:45:30;-1.60;99.90
36654;DHT22;22650;49.350;20.898;2024-02-16T05:48:04;-1.50;99.90
36654;DHT22;22650;49.350;20.898;2024-02-16T05:50:38;-1.50;99.90
36654;DHT22;22650;49.350;20.898;2024-02-16T05:53:13;-1.40;99.90
36654;DHT22;22650;49.350;20.898;2024-02-16T05:55:46;-1.40;99.90
36654;DHT22;22650;49.350;20.898;2024-02-16T05:58:23;-1.40;99.90
36654;DHT22;22650;49.350;20.898;2024-02-16T06:00:56;-1.30;99.90
36654;DHT22;22650;49.350;20.898;2024-02-16T06:03:31;-1.30;99.90
36654;DHT22;22650;49.350;20.898;2024-02-16T06:06:05;-1.30;99.90
36654;DHT22;22650;49.350;20.898;2024-02-16T06:08:40;-1.30;99.90
36654;DHT22;22650;49.350;20.898;2024-02-16T06:11:14;-1.20;99.90
36654;DHT22;22650;49.350;20.898;2024-02-16T06:13:49;-1.10;99.90
36654;DHT22;22650;49.350;20.898;2024-02-16T06:16:23;-1.10;99.90
36654;DHT22;22650;49.350;20.898;2024-02-16T06:18:56;-1.00;99.90
36654;DHT22;22650;49.350;20.898;2024-02-16T06:21:30;-1.00;99.90
36654;DHT22;22650;49.350;20.898;2024-02-16T06:24:04;-1.00;99.90
36654;DHT22;22650;49.350;20.898;2024-02-16T06:26:40;-0.90;99.90
36654;DHT22;22650;49.350;20.898;2024-02-16T06:29:16;-0.80;99.90
36654;DHT22;22650;49.350;20.898;2024-02-16T06:31:51;-0.80;99.90
36654;DHT22;22650;49.350;20.898;2024-02-16T06:34:25;-0.70;99.90
36654;DHT22;22650;49.350;20.898;2024-02-16T06:36:59;-0.70;99.90
36654;DHT22;22650;49.350;20.898;2024-02-16T06:39:33;-0.60;99.90
36654;DHT22;22650;49.350;20.898;2024-02-16T06:42:07;-0.60;99.90
36654;DHT22;22650;49.350;20.898;2024-02-16T06:44:42;-0.50;99.90
36654;DHT22;22650;49.350;20.898;2024-02-16T06:47:16;-0.50;99.90
36654;DHT22;22650;49.350;20.898;2024-02-16T06:49:50;-0.40;99.90
36654;DHT22;22650;49.350;20.898;2024-02-16T06:52:25;-0.30;99.90
36654;DHT22;22650;49.350;20.898;2024-02-16T06:54:59;-0.30;99.90
36654;DHT22;22650;49.350;20.898;2024-02-16T06:57:32;-0.20;99.90
36654;DHT22;22650;49.350;20.898;2024-02-16T07:00:09;-0.10;99.90
36654;DHT22;22650;49.350;20.898;2024-02-16T07:02:43;0.00;99.90
36654;DHT22;22650;49.350;20.898;2024-02-16T07:05:16;0.10;99.90
36654;DHT22;22650;49.350;20.898;2024-02-16T07:07:50;0.10;99.90
36654;DHT22;22650;49.350;20.898;2024-02-16T07:10:24;0.20;99.90
36654;DHT22;22650;49.350;20.898;2024-02-16T07:12:57;0.20;99.90
36654;DHT22;22650;49.350;20.898;2024-02-16T07:15:32;0.30;99.90
36654;DHT22;22650;49.350;20.898;2024-02-16T07:18:06;0.40;99.90
36654;DHT22;22650;49.350;20.898;2024-02-16T07:20:40;0.40;99.90
36654;DHT22;22650;49.350;20.898;2024-02-16T07:23:14;0.50;99.90
36654;DHT22;22650;49.350;20.898;2024-02-16T07:25:48;0.60;99.90
36654;DHT22;22650;49.350;20.898;2024-02-16T07:28:22;0.60;99.90
36654;DHT22;22650;49.350;20.898;2024-02-16T07:30:57;0.70;99.90
36654;DHT22;22650;49.350;20.898;2024-02-16T07:33:33;0.80;99.90
36654;DHT22;22650;49.350;20.898;2024-02-16T07:36:07;0.80;99.90
36654;DHT22;22650;49.350;20.898;2024-02-16T07:38:41;0.90;99.90
36654;DHT22;22650;49.350;20.898;2024-02-16T07:41:14;1.00;99.90
36654;DHT22;22650;49.350;20.898;2024-02-16T07:43:49;1.10;99.90
36654;DHT22;22650;49.350;20.898;2024-02-16T07:46:24;1.20;99.90
36654;DHT22;22650;49.350;20.898;2024-02-16T07:48:58;1.20;99.90
36654;DHT22;22650;49.350;20.898;2024-02-16T07:51:32;1.30;99.90
36654;DHT22;22650;49.350;20.898;2024-02-16T07:54:06;1.40;99.90
36654;DHT22;22650;49.350;20.898;2024-02-16T07:56:40;1.50;99.90
36654;DHT22;22650;49.350;20.898;2024-02-16T07:59:14;1.60;99.90
36654;DHT22;22650;49.350;20.898;2024-02-16T08:01:49;1.60;99.90
36654;DHT22;22650;49.350;20.898;2024-02-16T08:04:23;1.70;99.90
36654;DHT22;22650;49.350;20.898;2024-02-16T08:06:57;1.80;99.90
36654;DHT22;22650;49.350;20.898;2024-02-16T08:09:33;1.90;99.90
36654;DHT22;22650;49.350;20.898;2024-02-16T08:12:07;2.00;99.90
36654;DHT22;22650;49.350;20.898;2024-02-16T08:14:41;2.10;99.90
36654;DHT22;22650;49.350;20.898;2024-02-16T08:17:16;2.20;99.90
36654;DHT22;22650;49.350;20.898;2024-02-16T08:19:52;2.30;99.90
36654;DHT22;22650;49.350;20.898;2024-02-16T08:22:27;2.40;99.90
36654;DHT22;22650;49.350;20.898;2024-02-16T08:25:01;2.50;99.90
36654;DHT22;22650;49.350;20.898;2024-02-16T08:27:34;2.60;99.90
36654;DHT22;22650;49.350;20.898;2024-02-16T08:30:09;2.70;99.90
36654;DHT22;22650;49.350;20.898;2024-02-16T08:32:45;2.80;99.90
36654;DHT22;22650;49.350;20.898;2024-02-16T08:35:19;2.90;99.90
36654;DHT22;22650;49.350;20.898;2024-02-16T08:37:52;3.10;99.90
36654;DHT22;22650;49.350;20.898;2024-02-16T08:40:26;3.20;99.90
36654;DHT22;22650;49.350;20.898;2024-02-16T08:43:00;3.40;99.90
36654;DHT22;22650;49.350;20.898;2024-02-16T08:45:35;3.50;99.90
36654;DHT22;22650;49.350;20.898;2024-02-16T08:48:10;3.50;99.90
36654;DHT22;22650;49.350;20.898;2024-02-16T08:50:44;3.60;99.90
36654;DHT22;22650;49.350;20.898;2024-02-16T08:53:17;3.80;99.90
36654;DHT22;22650;49.350;20.898;2024-02-16T08:55:51;3.90;99.90
36654;DHT22;22650;49.350;20.898;2024-02-16T08:58:24;4.00;99.90
36654;DHT22;22650;49.350;20.898;2024-02-16T09:00:58;4.10;99.90
36654;DHT22;22650;49.350;20.898;2024-02-16T09:03:33;4.10;99.90
36654;DHT22;22650;49.350;20.898;2024-02-16T09:06:10;4.20;99.90
36654;DHT22;22650;49.350;20.898;2024-02-16T09:08:45;4.30;99.90
36654;DHT22;22650;49.350;20.898;2024-02-16T09:11:19;4.30;99.90
36654;DHT22;22650;49.350;20.898;2024-02-16T09:13:52;4.40;99.90
36654;DHT22;22650;49.350;20.898;2024-02-16T09:16:26;4.50;99.90
36654;DHT22;22650;49.350;20.898;2024-02-16T09:19:02;4.60;99.90
36654;DHT22;22650;49.350;20.898;2024-02-16T09:21:35;4.70;99.90
36654;DHT22;22650;49.350;20.898;2024-02-16T09:24:09;4.90;99.90
36654;DHT22;22650;49.350;20.898;2024-02-16T09:26:47;5.20;99.90
36654;DHT22;22650;49.350;20.898;2024-02-16T09:29:20;5.40;99.90
36654;DHT22;22650;49.350;20.898;2024-02-16T09:31:54;5.60;99.90
36654;DHT22;22650;49.350;20.898;2024-02-16T09:34:29;6.00;99.90
36654;DHT22;22650;49.350;20.898;2024-02-16T09:37:02;6.40;99.90
36654;DHT22;22650;49.350;20.898;2024-02-16T09:39:37;6.70;99.90
36654;DHT22;22650;49.350;20.898;2024-02-16T09:42:10;7.00;99.90
36654;DHT22;22650;49.350;20.898;2024-02-16T09:44:47;7.40;99.90
36654;DHT22;22650;49.350;20.898;2024-02-16T09:47:22;7.60;99.90
36654;DHT22;22650;49.350;20.898;2024-02-16T09:49:59;7.80;99.90
36654;DHT22;22650;49.350;20.898;2024-02-16T09:52:34;8.10;99.90
36654;DHT22;22650;49.350;20.898;2024-02-16T09:55:11;8.30;99.90
36654;DHT22;22650;49.350;20.898;2024-02-16T09:57:45;8.70;99.90
36654;DHT22;22650;49.350;20.898;2024-02-16T10:00:19;8.70;99.90
36654;DHT22;22650;49.350;20.898;2024-02-16T10:02:52;8.60;99.90
36654;DHT22;22650;49.350;20.898;2024-02-16T10:05:27;8.80;99.90
36654;DHT22;22650;49.350;20.898;2024-02-16T10:08:11;9.00;99.90
36654;DHT22;22650;49.350;20.898;2024-02-16T10:10:45;9.30;99.90
36654;DHT22;22650;49.350;20.898;2024-02-16T10:13:18;9.60;99.90
36654;DHT22;22650;49.350;20.898;2024-02-16T10:15:52;9.80;99.90
36654;DHT22;22650;49.350;20.898;2024-02-16T10:18:37;10.10;99.90
36654;DHT22;22650;49.350;20.898;2024-02-16T10:21:12;10.40;99.90
36654;DHT22;22650;49.350;20.898;2024-02-16T10:23:54;10.60;99.90
36654;DHT22;22650;49.350;20.898;2024-02-16T10:26:28;10.80;99.90
36654;DHT22;22650;49.350;20.898;2024-02-16T10:29:02;11.10;99.90
36654;DHT22;22650;49.350;20.898;2024-02-16T10:31:36;11.40;99.90
36654;DHT22;22650;49.350;20.898;2024-02-16T10:34:10;11.70;99.90
36654;DHT22;22650;49.350;20.898;2024-02-16T10:36:46;12.00;99.90
36654;DHT22;22650;49.350;20.898;2024-02-16T10:39:20;12.40;99.90
36654;DHT22;22650;49.350;20.898;2024-02-16T10:41:56;12.80;99.90
36654;DHT22;22650;49.350;20.898;2024-02-16T10:44:30;13.00;97.10
36654;DHT22;22650;49.350;20.898;2024-02-16T10:47:04;13.30;96.60
36654;DHT22;22650;49.350;20.898;2024-02-16T10:49:38;13.60;96.40
36654;DHT22;22650;49.350;20.898;2024-02-16T10:52:14;13.80;94.90
36654;DHT22;22650;49.350;20.898;2024-02-16T10:54:50;13.90;93.80
36654;DHT22;22650;49.350;20.898;2024-02-16T10:57:24;14.30;93.70
36654;DHT22;22650;49.350;20.898;2024-02-16T10:59:57;14.60;92.70
36654;DHT22;22650;49.350;20.898;2024-02-16T11:02:31;14.90;91.80
36654;DHT22;22650;49.350;20.898;2024-02-16T11:05:08;15.10;90.00
36654;DHT22;22650;49.350;20.898;2024-02-16T11:07:43;15.20;87.50
36654;DHT22;22650;49.350;20.898;2024-02-16T11:10:17;15.40;86.70
36654;DHT22;22650;49.350;20.898;2024-02-16T11:12:54;15.70;87.20
36654;DHT22;22650;49.350;20.898;2024-02-16T11:15:28;15.90;84.40
36654;DHT22;22650;49.350;20.898;2024-02-16T11:18:04;16.20;85.10
36654;DHT22;22650;49.350;20.898;2024-02-16T11:20:39;16.30;82.50
36654;DHT22;22650;49.350;20.898;2024-02-16T11:23:15;16.40;82.10
36654;DHT22;22650;49.350;20.898;2024-02-16T11:25:51;16.50;79.60
36654;DHT22;22650;49.350;20.898;2024-02-16T11:28:25;16.70;80.80
36654;DHT22;22650;49.350;20.898;2024-02-16T11:30:58;16.80;79.70
36654;DHT22;22650;49.350;20.898;2024-02-16T11:33:33;17.00;79.00
36654;DHT22;22650;49.350;20.898;2024-02-16T11:36:07;16.90;74.80
36654;DHT22;22650;49.350;20.898;2024-02-16T11:38:43;17.10;78.80
36654;DHT22;22650;49.350;20.898;2024-02-16T11:41:16;17.20;77.80
36654;DHT22;22650;49.350;20.898;2024-02-16T11:43:50;17.40;77.50
36654;DHT22;22650;49.350;20.898;2024-02-16T11:46:24;17.30;74.70
36654;DHT22;22650;49.350;20.898;2024-02-16T11:49:05;17.10;72.40
36654;DHT22;22650;49.350;20.898;2024-02-16T11:51:38;16.80;71.70
36654;DHT22;22650;49.350;20.898;2024-02-16T11:54:14;16.70;74.40
36654;DHT22;22650;49.350;20.898;2024-02-16T11:56:48;16.70;73.30
36654;DHT22;22650;49.350;20.898;2024-02-16T11:59:23;16.40;71.90
36654;DHT22;22650;49.350;20.898;2024-02-16T12:01:58;16.50;74.40
36654;DHT22;22650;49.350;20.898;2024-02-16T12:04:31;16.50;75.20
36654;DHT22;22650;49.350;20.898;2024-02-16T12:07:15;16.40;73.90
36654;DHT22;22650;49.350;20.898;2024-02-16T12:09:56;16.40;74.00
36654;DHT22;22650;49.350;20.898;2024-02-16T12:12:31;16.20;74.00
36654;DHT22;22650;49.350;20.898;2024-02-16T12:15:06;16.10;73.00
36654;DHT22;22650;49.350;20.898;2024-02-16T12:17:40;15.90;73.20
36654;DHT22;22650;49.350;20.898;2024-02-16T12:20:14;16.00;75.10
36654;DHT22;22650;49.350;20.898;2024-02-16T12:22:49;16.10;74.10
36654;DHT22;22650;49.350;20.898;2024-02-16T12:25:24;15.90;72.90
36654;DHT22;22650;49.350;20.898;2024-02-16T12:27:58;15.90;73.90
36654;DHT22;22650;49.350;20.898;2024-02-16T12:30:31;15.90;75.20
36654;DHT22;22650;49.350;20.898;2024-02-16T12:33:05;15.60;74.40
36654;DHT22;22650;49.350;20.898;2024-02-16T12:35:39;15.40;74.20
36654;DHT22;22650;49.350;20.898;2024-02-16T12:38:12;15.50;74.90
36654;DHT22;22650;49.350;20.898;2024-02-16T12:40:50;15.50;74.50
36654;DHT22;22650;49.350;20.898;2024-02-16T12:43:24;15.50;75.50
36654;DHT22;22650;49.350;20.898;2024-02-16T12:45:57;15.70;75.70
36654;DHT22;22650;49.350;20.898;2024-02-16T12:48:34;15.60;74.90
36654;DHT22;22650;49.350;20.898;2024-02-16T12:51:07;15.70;74.50
36654;DHT22;22650;49.350;20.898;2024-02-16T12:53:43;15.80;74.60
36654;DHT22;22650;49.350;20.898;2024-02-16T12:56:18;15.70;73.80
36654;DHT22;22650;49.350;20.898;2024-02-16T12:58:53;15.80;75.70
36654;DHT22;22650;49.350;20.898;2024-02-16T13:01:27;15.80;74.70
36654;DHT22;22650;49.350;20.898;2024-02-16T13:04:01;15.60;74.30
36654;DHT22;22650;49.350;20.898;2024-02-16T13:06:35;15.50;74.70
36654;DHT22;22650;49.350;20.898;2024-02-16T13:09:10;15.40;75.00
36654;DHT22;22650;49.350;20.898;2024-02-16T13:11:45;15.40;75.80
36654;DHT22;22650;49.350;20.898;2024-02-16T13:14:26;15.50;75.80
36654;DHT22;22650;49.350;20.898;2024-02-16T13:17:00;15.50;75.70
36654;DHT22;22650;49.350;20.898;2024-02-16T13:19:34;15.40;75.30
36654;DHT22;22650;49.350;20.898;2024-02-16T13:22:07;15.30;75.50
36654;DHT22;22650;49.350;20.898;2024-02-16T13:24:41;15.10;75.10
36654;DHT22;22650;49.350;20.898;2024-02-16T13:27:17;15.00;76.40
36654;DHT22;22650;49.350;20.898;2024-02-16T13:29:50;15.00;76.80
36654;DHT22;22650;49.350;20.898;2024-02-16T13:32:25;15.00;76.70
36654;DHT22;22650;49.350;20.898;2024-02-16T13:34:58;14.80;77.00
36654;DHT22;22650;49.350;20.898;2024-02-16T13:37:32;14.80;77.00
36654;DHT22;22650;49.350;20.898;2024-02-16T13:40:06;14.90;77.70
36654;DHT22;22650;49.350;20.898;2024-02-16T13:42:45;14.80;77.70
36654;DHT22;22650;49.350;20.898;2024-02-16T13:45:19;14.80;77.70
36654;DHT22;22650;49.350;20.898;2024-02-16T13:47:52;14.70;77.20
36654;DHT22;22650;49.350;20.898;2024-02-16T13:50:26;14.60;77.50
36654;DHT22;22650;49.350;20.898;2024-02-16T13:53:00;14.60;78.40
36654;DHT22;22650;49.350;20.898;2024-02-16T13:55:33;14.60;78.30
36654;DHT22;22650;49.350;20.898;2024-02-16T13:58:08;14.40;77.50
36654;DHT22;22650;49.350;20.898;2024-02-16T14:00:42;14.40;79.00
36654;DHT22;22650;49.350;20.898;2024-02-16T14:03:17;14.30;79.00
36654;DHT22;22650;49.350;20.898;2024-02-16T14:05:50;14.20;79.70
36654;DHT22;22650;49.350;20.898;2024-02-16T14:08:24;14.20;79.30
36654;DHT22;22650;49.350;20.898;2024-02-16T14:10:59;14.00;80.10
36654;DHT22;22650;49.350;20.898;2024-02-16T14:13:34;13.90;80.10
36654;DHT22;22650;49.350;20.898;2024-02-16T14:16:07;13.80;80.50
36654;DHT22;22650;49.350;20.898;2024-02-16T14:18:42;13.70;81.10
36654;DHT22;22650;49.350;20.898;2024-02-16T14:21:16;13.70;81.50
36654;DHT22;22650;49.350;20.898;2024-02-16T14:23:49;13.60;81.60
36654;DHT22;22650;49.350;20.898;2024-02-16T14:26:23;13.60;82.40
36654;DHT22;22650;49.350;20.898;2024-02-16T14:28:58;13.60;82.50
36654;DHT22;22650;49.350;20.898;2024-02-16T14:31:31;13.50;82.60
36654;DHT22;22650;49.350;20.898;2024-02-16T14:34:05;13.40;82.30
36654;DHT22;22650;49.350;20.898;2024-02-16T14:36:39;13.40;82.60
36654;DHT22;22650;49.350;20.898;2024-02-16T14:39:13;13.30;83.10
36654;DHT22;22650;49.350;20.898;2024-02-16T14:41:48;13.30;83.60
36654;DHT22;22650;49.350;20.898;2024-02-16T14:44:23;13.30;83.70
36654;DHT22;22650;49.350;20.898;2024-02-16T14:46:57;13.20;83.70
36654;DHT22;22650;49.350;20.898;2024-02-16T14:49:30;13.20;84.20
36654;DHT22;22650;49.350;20.898;2024-02-16T14:52:06;13.10;85.00
36654;DHT22;22650;49.350;20.898;2024-02-16T14:54:41;13.10;85.40
36654;DHT22;22650;49.350;20.898;2024-02-16T14:57:15;12.90;84.60
36654;DHT22;22650;49.350;20.898;2024-02-16T14:59:53;12.90;85.50
36654;DHT22;22650;49.350;20.898;2024-02-16T15:02:29;12.80;85.60
36654;DHT22;22650;49.350;20.898;2024-02-16T15:05:02;12.80;86.10
36654;DHT22;22650;49.350;20.898;2024-02-16T15:07:36;12.70;86.10
36654;DHT22;22650;49.350;20.898;2024-02-16T15:10:10;12.70;86.10
36654;DHT22;22650;49.350;20.898;2024-02-16T15:12:44;12.60;86.60
36654;DHT22;22650;49.350;20.898;2024-02-16T15:15:19;12.60;86.70
36654;DHT22;22650;49.350;20.898;2024-02-16T15:17:53;12.60;87.10
36654;DHT22;22650;49.350;20.898;2024-02-16T15:20:28;12.50;87.50
36654;DHT22;22650;49.350;20.898;2024-02-16T15:23:02;12.50;87.70
36654;DHT22;22650;49.350;20.898;2024-02-16T15:25:35;12.40;88.10
36654;DHT22;22650;49.350;20.898;2024-02-16T15:28:09;12.30;88.40
36654;DHT22;22650;49.350;20.898;2024-02-16T15:30:44;12.10;88.80
36654;DHT22;22650;49.350;20.898;2024-02-16T15:33:18;12.10;89.50
36654;DHT22;22650;49.350;20.898;2024-02-16T15:35:51;11.90;90.10
36654;DHT22;22650;49.350;20.898;2024-02-16T15:38:25;11.80;90.50
36654;DHT22;22650;49.350;20.898;2024-02-16T15:40:59;11.60;90.90
36654;DHT22;22650;49.350;20.898;2024-02-16T15:43:32;11.40;91.70
36654;DHT22;22650;49.350;20.898;2024-02-16T15:46:07;11.30;92.20
36654;DHT22;22650;49.350;20.898;2024-02-16T15:48:41;11.10;92.80
36654;DHT22;22650;49.350;20.898;2024-02-16T15:51:14;10.90;93.90
36654;DHT22;22650;49.350;20.898;2024-02-16T15:53:48;10.80;94.20
36654;DHT22;22650;49.350;20.898;2024-02-16T15:56:21;10.70;95.20
36654;DHT22;22650;49.350;20.898;2024-02-16T15:58:56;10.60;95.90
36654;DHT22;22650;49.350;20.898;2024-02-16T16:01:33;10.50;96.50
36654;DHT22;22650;49.350;20.898;2024-02-16T16:04:07;10.30;98.30